Airfield :
LOGIN :

Register | Disclaimer

   EN    FR    IT 

 










Legend :    VFR   Marginal VFR   IFR   Intensive IFR   Very Intensive IFR
Visi :
Ceiling :
>= 8 km
>= 3000ft
5 to 8 km
1000 to 3000 ft
1500m to 5 km
500 to 1000 ft
800 to 1500m
200 to 500 ft
< 800m
< 200 ft
Symbols :   Thunderstorms  Fog  Heavy snow  Heavy precipitations  Wind > 20 kt
SIGMETs :     Misc.  Thunderstorms  Icing  Turbulence  Mountain Waves  Volcanic Ashes






- Airport Elevation : 46 ft
- IATA code : SNN


EINN - Shannon

CURRENT METAR :
  • 181700Z 34002KT 9999 FEW030 03/02 Q1034 NOSIG

EXPIRED METARs :
  • 181630Z 35003KT 9999 FEW028 SCT180 04/02 Q1033 NOSIG
  • 181600Z 33004KT 9999 FEW030 BKN180 04/02 Q1032 NOSIG
  • 181530Z 30003KT 9999 FEW030 BKN180 04/02 Q1032 NOSIG
  • 181500Z 00000KT 9999 FEW030 BKN200 05/02 Q1031 NOSIG
  • 181430Z 05001KT 9999 FEW025 SCT200 04/02 Q1031 NOSIG

TAF TAF EINN
Valid from the 18 at 12:00 until the 19 at 12:00 UTC


181100Z 1812/1912 VRB03KT 9999 FEW020
PROB30
TEMPO 1821/1910 4000 BR



MET'MAP, your aeronautical weather chart ! - Copyright ORBIFLY December 2007 - Disclaimer

ORBIFLY MET'MAP TEAM :

Programming & Development : Alexandra Zaïnal
Concept & original design : Baudouin d'Aumeries
Assistance for programming : Marc-Olivier Méhu
Technical & hardware support : Manuel Goepfert

Contact : metmap@orbifly.com




SOURCES & CREDITS :

   NOAA